createdAt,value
2017-10-26T00:00:14.279Z,9.68
2017-10-26T00:00:48.135Z,6.85
2017-10-26T00:01:22.008Z,9.70
2017-10-26T00:01:55.883Z,9.23
2017-10-26T00:02:29.749Z,7.47
2017-10-26T00:03:03.667Z,13.45
2017-10-26T00:03:37.539Z,10.38
2017-10-26T00:04:11.401Z,11.85
2017-10-26T00:04:45.270Z,14.73
2017-10-26T00:05:19.133Z,15.45
2017-10-26T00:05:52.996Z,6.20
2017-10-26T00:06:26.893Z,10.35
2017-10-26T00:07:00.784Z,6.12
2017-10-26T00:07:34.642Z,10.02
2017-10-26T00:08:08.722Z,9.13
2017-10-26T00:08:42.582Z,9.48
2017-10-26T00:09:16.448Z,11.30
2017-10-26T00:09:50.310Z,10.35
2017-10-26T00:10:24.179Z,11.35
2017-10-26T00:10:58.037Z,10.73
2017-10-26T00:11:31.911Z,8.95
2017-10-26T00:12:05.806Z,6.12
2017-10-26T00:12:39.680Z,11.50
2017-10-26T00:13:13.534Z,6.53
2017-10-26T00:13:47.394Z,12.23
2017-10-26T00:14:21.264Z,8.50
2017-10-26T00:14:55.117Z,9.95
2017-10-26T00:15:28.988Z,8.05
2017-10-26T00:16:02.855Z,11.90
2017-10-26T00:16:36.714Z,8.75
2017-10-26T00:17:10.596Z,9.52
2017-10-26T00:17:44.465Z,12.27
2017-10-26T00:18:18.336Z,8.32
2017-10-26T00:18:52.217Z,9.93
2017-10-26T00:19:26.093Z,9.73
2017-10-26T00:19:59.966Z,14.02
2017-10-26T00:20:33.853Z,7.03
2017-10-26T00:21:07.741Z,11.00
2017-10-26T00:21:41.603Z,10.30
2017-10-26T00:22:15.494Z,16.00
2017-10-26T00:22:49.358Z,8.85
2017-10-26T00:23:23.235Z,12.23
2017-10-26T00:23:57.099Z,13.07
2017-10-26T00:24:30.970Z,16.98
2017-10-26T00:25:04.850Z,13.25
2017-10-26T00:25:38.759Z,11.52
2017-10-26T00:26:12.742Z,12.40
2017-10-26T00:26:46.598Z,14.43
2017-10-26T00:27:20.754Z,16.35
2017-10-26T00:27:54.633Z,13.85
2017-10-26T00:28:28.496Z,14.70
2017-10-26T00:29:02.437Z,16.58
2017-10-26T00:29:36.290Z,18.58
2017-10-26T00:30:10.171Z,19.50
2017-10-26T00:30:44.035Z,14.38
2017-10-26T00:31:17.893Z,15.02
2017-10-26T00:31:51.757Z,14.43
2017-10-26T00:32:25.720Z,15.02
2017-10-26T00:32:59.604Z,13.80
2017-10-26T00:33:33.515Z,19.37
2017-10-26T00:34:07.394Z,13.35
2017-10-26T00:34:41.263Z,15.20
2017-10-26T00:35:15.130Z,18.17
2017-10-26T00:35:49.003Z,17.73
2017-10-26T00:36:22.879Z,16.05
2017-10-26T00:36:57.766Z,14.82
2017-10-26T00:37:31.634Z,17.33
2017-10-26T00:38:05.503Z,13.85
2017-10-26T00:38:39.401Z,16.87
2017-10-26T00:39:13.295Z,15.20
2017-10-26T00:39:47.150Z,17.55
2017-10-26T00:40:21.018Z,15.15
2017-10-26T00:40:55.160Z,16.58
2017-10-26T00:41:29.053Z,14.20
2017-10-26T00:42:02.939Z,17.75
2017-10-26T00:42:36.831Z,18.45
2017-10-26T00:43:10.712Z,14.68
2017-10-26T00:43:44.571Z,15.63
2017-10-26T00:44:18.452Z,15.57
2017-10-26T00:44:52.329Z,15.98
2017-10-26T00:45:26.204Z,15.98
2017-10-26T00:46:00.083Z,17.67
2017-10-26T00:46:33.937Z,14.43
2017-10-26T00:47:07.804Z,14.20
2017-10-26T00:47:41.922Z,18.33
2017-10-26T00:48:15.802Z,17.27
2017-10-26T00:48:49.759Z,14.23
2017-10-26T00:49:23.632Z,14.45
2017-10-26T00:49:57.601Z,17.33
2017-10-26T00:50:31.455Z,19.40
2017-10-26T00:51:05.335Z,15.45
2017-10-26T00:51:39.206Z,15.30
2017-10-26T00:52:13.077Z,17.17
2017-10-26T00:52:46.956Z,16.73
2017-10-26T00:53:20.946Z,15.20
2017-10-26T00:53:54.806Z,19.77
2017-10-26T00:54:28.907Z,19.25
2017-10-26T00:55:03.062Z,15.32
2017-10-26T00:55:36.927Z,15.73
2017-10-26T00:56:10.811Z,16.85
2017-10-26T00:56:44.683Z,23.27
2017-10-26T00:57:18.556Z,19.35
2017-10-26T00:57:52.443Z,16.77
2017-10-26T00:58:26.314Z,17.37
2017-10-26T00:59:00.185Z,15.23
2017-10-26T00:59:34.047Z,18.55
2017-10-26T01:00:07.931Z,15.50
2017-10-26T01:00:41.790Z,16.15
2017-10-26T01:01:15.812Z,17.70
2017-10-26T01:01:49.669Z,14.18
2017-10-26T01:02:23.534Z,12.85
2017-10-26T01:02:57.487Z,15.30
2017-10-26T01:03:31.350Z,16.20
2017-10-26T01:04:05.209Z,17.75
2017-10-26T01:04:39.090Z,18.73
2017-10-26T01:05:13.051Z,15.65
2017-10-26T01:05:46.926Z,23.87
2017-10-26T01:06:20.800Z,17.10
2017-10-26T01:06:54.658Z,18.17
2017-10-26T01:07:28.519Z,16.73
2017-10-26T01:08:02.443Z,22.70
2017-10-26T01:08:36.355Z,15.00
2017-10-26T01:09:10.227Z,15.32
2017-10-26T01:09:44.125Z,12.68
2017-10-26T01:10:17.988Z,15.48
2017-10-26T01:10:51.871Z,13.70
2017-10-26T01:11:25.733Z,15.20
2017-10-26T01:11:59.604Z,15.05
2017-10-26T01:12:33.526Z,17.15
2017-10-26T01:13:07.396Z,17.55
2017-10-26T01:13:41.266Z,16.80
2017-10-26T01:14:15.138Z,19.37
2017-10-26T01:14:49.004Z,11.60
2017-10-26T01:15:22.870Z,16.83
2017-10-26T01:15:56.740Z,16.80
2017-10-26T01:16:30.611Z,13.85
2017-10-26T01:17:04.481Z,23.50
2017-10-26T01:17:38.369Z,13.52
2017-10-26T01:18:12.242Z,21.95
2017-10-26T01:18:46.110Z,18.62
2017-10-26T01:19:19.984Z,20.52
2017-10-26T01:19:53.842Z,13.88
2017-10-26T01:20:27.850Z,18.75
2017-10-26T01:21:01.720Z,20.90
2017-10-26T01:21:35.735Z,19.15
2017-10-26T01:22:09.598Z,20.20
2017-10-26T01:22:43.476Z,17.48
2017-10-26T01:23:17.358Z,16.85
2017-10-26T01:23:51.227Z,15.95
2017-10-26T01:24:25.196Z,17.35
2017-10-26T01:24:59.067Z,18.70
2017-10-26T01:25:32.930Z,18.35
2017-10-26T01:26:06.812Z,16.25
2017-10-26T01:26:40.669Z,16.25
2017-10-26T01:27:14.537Z,17.98
2017-10-26T01:27:48.398Z,18.20
2017-10-26T01:28:22.295Z,18.45
2017-10-26T01:28:56.163Z,17.58
2017-10-26T01:29:30.051Z,14.87
2017-10-26T01:30:03.928Z,20.00
2017-10-26T01:30:37.956Z,17.00
2017-10-26T01:31:11.821Z,19.40
2017-10-26T01:31:45.685Z,13.77
2017-10-26T01:32:19.541Z,20.98
2017-10-26T01:32:53.411Z,17.60
2017-10-26T01:33:27.348Z,14.95
2017-10-26T01:34:01.216Z,22.75
2017-10-26T01:34:35.088Z,22.13
2017-10-26T01:35:08.967Z,20.67
2017-10-26T01:35:42.822Z,19.15
2017-10-26T01:36:16.689Z,20.98
2017-10-26T01:36:50.563Z,18.35
2017-10-26T01:37:24.430Z,21.73
2017-10-26T01:37:58.293Z,15.38
2017-10-26T01:38:32.170Z,15.48
2017-10-26T01:39:06.060Z,18.20
2017-10-26T01:39:39.922Z,18.85
2017-10-26T01:40:13.787Z,13.57
2017-10-26T01:40:47.750Z,17.80
2017-10-26T01:41:21.623Z,18.52
2017-10-26T01:41:55.491Z,16.08
2017-10-26T01:42:29.358Z,23.55
2017-10-26T01:43:03.247Z,15.13
2017-10-26T01:43:37.130Z,17.58
2017-10-26T01:44:10.997Z,14.05
2017-10-26T01:44:44.870Z,13.98
2017-10-26T01:45:18.912Z,12.20
2017-10-26T01:45:52.787Z,16.20
2017-10-26T01:46:26.655Z,14.30
2017-10-26T01:47:00.597Z,13.48
2017-10-26T01:47:34.461Z,16.65
2017-10-26T01:48:08.326Z,15.60
2017-10-26T01:48:42.384Z,13.82
2017-10-26T01:49:16.258Z,29.25
2017-10-26T01:49:50.117Z,12.63
2017-10-26T01:50:23.992Z,19.23
2017-10-26T01:50:57.851Z,11.63
2017-10-26T01:51:31.710Z,17.02
2017-10-26T01:52:05.653Z,16.23
2017-10-26T01:52:39.506Z,18.27
2017-10-26T01:53:13.379Z,17.33
2017-10-26T01:53:47.338Z,16.70
2017-10-26T01:54:21.193Z,13.82
2017-10-26T01:54:55.061Z,14.82
2017-10-26T01:55:29.332Z,16.35
2017-10-26T01:56:03.223Z,12.10
2017-10-26T01:56:37.083Z,18.77
2017-10-26T01:57:10.966Z,21.08
2017-10-26T01:57:44.830Z,10.27
2017-10-26T01:58:18.731Z,15.52
2017-10-26T01:58:52.708Z,15.95
2017-10-26T01:59:26.605Z,18.15
2017-10-26T02:00:00.471Z,17.73
2017-10-26T02:00:34.348Z,18.20
2017-10-26T02:01:08.222Z,17.35
2017-10-26T02:01:42.096Z,17.10
2017-10-26T02:02:15.959Z,17.37
2017-10-26T02:02:49.823Z,15.23
2017-10-26T02:03:23.786Z,15.02
2017-10-26T02:03:57.673Z,14.15
2017-10-26T02:04:31.541Z,15.10
2017-10-26T02:05:05.397Z,18.23
2017-10-26T02:05:39.277Z,10.60
2017-10-26T02:06:18.912Z,13.20
2017-10-26T02:06:58.602Z,16.00
2017-10-26T02:07:38.208Z,18.50
2017-10-26T02:08:12.066Z,14.85
2017-10-26T02:08:45.935Z,12.20
2017-10-26T02:09:20.434Z,13.85
2017-10-26T02:09:54.430Z,20.42
2017-10-26T02:10:28.308Z,19.58
2017-10-26T02:11:02.184Z,15.25
2017-10-26T02:11:36.114Z,13.68
2017-10-26T02:12:10.144Z,13.35
2017-10-26T02:12:43.999Z,18.00
2017-10-26T02:13:18.108Z,11.82
2017-10-26T02:13:51.983Z,13.77
2017-10-26T02:14:25.864Z,14.48
2017-10-26T02:14:59.724Z,12.43
2017-10-26T02:15:33.590Z,12.95
2017-10-26T02:16:07.461Z,11.00
2017-10-26T02:16:41.323Z,15.48
2017-10-26T02:17:15.176Z,18.25
2017-10-26T02:17:49.054Z,16.55
2017-10-26T02:18:23.134Z,13.73
2017-10-26T02:18:56.998Z,16.10
2017-10-26T02:19:30.897Z,13.20
2017-10-26T02:20:04.769Z,10.95
2017-10-26T02:20:38.630Z,10.95
2017-10-26T02:21:12.507Z,11.38
2017-10-26T02:21:46.367Z,15.55
2017-10-26T02:22:20.229Z,18.27
2017-10-26T02:22:54.101Z,13.30
2017-10-26T02:23:28.007Z,18.00
2017-10-26T02:24:01.881Z,11.65
2017-10-26T02:24:35.809Z,19.83
2017-10-26T02:25:09.684Z,14.75
2017-10-26T02:25:43.559Z,16.83
2017-10-26T02:26:17.432Z,17.17
2017-10-26T02:26:51.299Z,15.65
2017-10-26T02:27:25.197Z,17.42
2017-10-26T02:27:59.102Z,13.02
2017-10-26T02:28:38.813Z,13.10
2017-10-26T02:29:18.626Z,15.48
2017-10-26T02:29:58.231Z,15.30
2017-10-26T02:30:37.833Z,15.10
2017-10-26T02:31:17.492Z,11.90
2017-10-26T02:31:51.362Z,11.35
2017-10-26T02:32:25.437Z,15.10
2017-10-26T02:32:59.308Z,14.38
2017-10-26T02:33:33.167Z,11.00
2017-10-26T02:34:07.043Z,16.00
2017-10-26T02:34:41.011Z,11.18
2017-10-26T02:35:15.276Z,16.23
2017-10-26T02:35:49.143Z,11.00
2017-10-26T02:36:23.006Z,17.73
2017-10-26T02:36:56.863Z,13.77
2017-10-26T02:37:30.726Z,13.45
2017-10-26T02:38:04.799Z,13.82
2017-10-26T02:38:38.693Z,17.58
2017-10-26T02:39:12.562Z,16.15
2017-10-26T02:39:46.458Z,15.00
2017-10-26T02:40:20.326Z,14.80
2017-10-26T02:40:54.201Z,11.30
2017-10-26T02:41:28.068Z,21.10
2017-10-26T02:42:01.936Z,18.05
2017-10-26T02:42:35.945Z,13.27
2017-10-26T02:43:09.858Z,15.02
2017-10-26T02:43:43.948Z,17.48
2017-10-26T02:44:17.836Z,13.62
2017-10-26T02:44:51.694Z,13.13
2017-10-26T02:45:25.589Z,10.88
2017-10-26T02:45:59.531Z,14.63
2017-10-26T02:46:33.419Z,14.45
2017-10-26T02:47:07.425Z,19.05
2017-10-26T02:47:41.303Z,12.50
2017-10-26T02:48:15.165Z,15.55
2017-10-26T02:48:49.065Z,13.62
2017-10-26T02:49:22.934Z,13.23
2017-10-26T02:49:56.792Z,29.23
2017-10-26T02:50:30.806Z,10.90
2017-10-26T02:51:04.685Z,15.60
2017-10-26T02:51:38.690Z,14.77
2017-10-26T02:52:12.547Z,16.23
2017-10-26T02:52:46.413Z,13.45
2017-10-26T02:53:20.275Z,11.48
2017-10-26T02:53:54.174Z,13.93
2017-10-26T02:54:28.027Z,11.68
2017-10-26T02:55:01.903Z,19.83
2017-10-26T02:55:35.783Z,13.62
2017-10-26T02:56:09.742Z,14.45
2017-10-26T02:56:43.612Z,10.52
2017-10-26T02:57:17.478Z,14.18
2017-10-26T02:57:51.429Z,17.02
2017-10-26T02:58:25.314Z,12.82
2017-10-26T02:58:59.391Z,14.27
2017-10-26T02:59:33.263Z,15.40
2017-10-26T03:00:07.131Z,18.23
2017-10-26T03:00:40.998Z,16.75
2017-10-26T03:01:15.106Z,15.32
2017-10-26T03:01:48.968Z,16.33
2017-10-26T03:02:23.103Z,16.05
2017-10-26T03:02:56.976Z,11.25
2017-10-26T03:03:31.005Z,20.35
2017-10-26T03:04:04.865Z,12.32
2017-10-26T03:04:38.886Z,13.10
2017-10-26T03:05:12.743Z,12.93
2017-10-26T03:05:46.606Z,17.77
2017-10-26T03:06:20.474Z,14.02
2017-10-26T03:06:54.336Z,13.77
2017-10-26T03:07:28.201Z,11.43
2017-10-26T03:08:02.054Z,11.63
2017-10-26T03:08:36.060Z,13.88
2017-10-26T03:09:09.931Z,14.40
2017-10-26T03:09:43.799Z,15.38
2017-10-26T03:10:17.658Z,16.92
2017-10-26T03:10:51.535Z,12.20
2017-10-26T03:11:25.402Z,11.55
2017-10-26T03:11:59.251Z,13.68
2017-10-26T03:12:33.136Z,12.60
2017-10-26T03:13:07.364Z,16.87
2017-10-26T03:13:41.237Z,12.35
2017-10-26T03:14:15.109Z,15.82
2017-10-26T03:14:49.013Z,14.50
2017-10-26T03:15:22.871Z,11.95
2017-10-26T03:15:56.793Z,15.68
2017-10-26T03:16:30.655Z,14.05
2017-10-26T03:17:04.536Z,16.33
2017-10-26T03:17:38.403Z,15.55
2017-10-26T03:18:12.291Z,19.02
2017-10-26T03:18:46.141Z,11.38
2017-10-26T03:19:20.164Z,16.65
2017-10-26T03:19:54.022Z,17.50
2017-10-26T03:20:27.898Z,17.73
2017-10-26T03:21:01.775Z,14.48
2017-10-26T03:21:35.635Z,17.20
2017-10-26T03:22:09.503Z,16.98
2017-10-26T03:22:43.409Z,15.27
2017-10-26T03:23:17.276Z,13.68
2017-10-26T03:23:51.165Z,15.82
2017-10-26T03:24:25.139Z,16.42
2017-10-26T03:24:59.004Z,20.42
2017-10-26T03:25:32.883Z,19.15
2017-10-26T03:26:07.337Z,16.27
2017-10-26T03:26:41.242Z,14.60
2017-10-26T03:27:15.127Z,17.95
2017-10-26T03:27:49.001Z,23.20
2017-10-26T03:28:22.901Z,18.12
2017-10-26T03:28:56.755Z,19.98
2017-10-26T03:29:30.637Z,17.80
2017-10-26T03:30:04.495Z,18.00
2017-10-26T03:30:38.392Z,25.27
2017-10-26T03:31:12.275Z,19.90
2017-10-26T03:31:46.125Z,20.48
2017-10-26T03:32:19.991Z,17.75
2017-10-26T03:32:53.853Z,21.05
2017-10-26T03:33:27.726Z,17.00
2017-10-26T03:34:01.853Z,14.15
2017-10-26T03:34:35.770Z,22.25
2017-10-26T03:35:09.651Z,24.65
2017-10-26T03:35:43.538Z,18.10
2017-10-26T03:36:17.659Z,24.40
2017-10-26T03:36:51.530Z,16.20
2017-10-26T03:37:25.451Z,24.25
2017-10-26T03:37:59.316Z,23.90
2017-10-26T03:38:33.291Z,17.08
2017-10-26T03:39:07.217Z,17.87
2017-10-26T03:39:41.207Z,23.40
2017-10-26T03:40:15.078Z,21.55
2017-10-26T03:40:49.209Z,27.08
2017-10-26T03:41:23.223Z,21.95
2017-10-26T03:41:57.102Z,23.95
2017-10-26T03:42:31.032Z,22.83
2017-10-26T03:43:04.981Z,24.63
2017-10-26T03:43:38.864Z,21.55
2017-10-26T03:44:12.736Z,16.70
2017-10-26T03:44:46.595Z,27.20
2017-10-26T03:45:20.473Z,17.55
2017-10-26T03:45:54.354Z,19.20
2017-10-26T03:46:28.287Z,22.25
2017-10-26T03:47:02.173Z,21.65
2017-10-26T03:47:36.056Z,19.92
2017-10-26T03:48:09.928Z,21.77
2017-10-26T03:48:43.789Z,19.30
2017-10-26T03:49:17.753Z,25.02
2017-10-26T03:49:51.627Z,19.73
2017-10-26T03:50:25.511Z,23.73
2017-10-26T03:50:59.370Z,23.87
2017-10-26T03:51:33.538Z,16.98
2017-10-26T03:52:07.444Z,20.48
2017-10-26T03:52:41.303Z,26.50
2017-10-26T03:53:15.328Z,20.70
2017-10-26T03:53:49.194Z,20.98
2017-10-26T03:54:23.310Z,22.50
2017-10-26T03:54:57.325Z,22.45
2017-10-26T03:55:31.316Z,25.90
2017-10-26T03:56:05.183Z,26.67
2017-10-26T03:56:39.082Z,28.90
2017-10-26T03:57:12.958Z,25.75
2017-10-26T03:57:46.818Z,22.08
2017-10-26T03:58:20.781Z,19.55
2017-10-26T03:58:54.689Z,19.25
2017-10-26T03:59:28.576Z,24.95
2017-10-26T04:00:02.456Z,18.80
2017-10-26T04:00:36.326Z,22.33
2017-10-26T04:01:10.670Z,25.75
2017-10-26T04:01:44.547Z,29.33
2017-10-26T04:02:18.424Z,20.35
2017-10-26T04:02:52.283Z,24.15
2017-10-26T04:03:26.149Z,20.80
2017-10-26T04:04:48.454Z,22.02
2017-10-26T04:05:22.350Z,23.67
2017-10-26T04:05:56.225Z,27.50
2017-10-26T04:06:30.269Z,27.17
2017-10-26T04:07:04.159Z,25.10
2017-10-26T04:07:38.065Z,26.83
2017-10-26T04:08:12.066Z,25.20
2017-10-26T04:08:45.933Z,27.42
2017-10-26T04:09:19.803Z,25.80
2017-10-26T04:09:53.746Z,32.55
2017-10-26T04:10:27.619Z,24.15
2017-10-26T04:11:01.638Z,20.02
2017-10-26T04:11:35.541Z,21.20
2017-10-26T04:12:09.434Z,19.70
2017-10-26T04:12:43.299Z,25.90
2017-10-26T04:13:17.200Z,22.70
2017-10-26T04:13:51.061Z,23.45
2017-10-26T04:14:24.929Z,24.60
2017-10-26T04:14:58.903Z,25.05
2017-10-26T04:15:32.912Z,25.60
2017-10-26T04:16:06.907Z,26.23
2017-10-26T04:16:40.777Z,23.98
2017-10-26T04:17:14.646Z,21.70
2017-10-26T04:17:48.516Z,25.00
2017-10-26T04:18:22.583Z,21.05
2017-10-26T04:18:56.493Z,22.48
2017-10-26T04:19:30.575Z,23.80
2017-10-26T04:20:04.452Z,25.77
2017-10-26T04:20:38.327Z,24.45
2017-10-26T04:21:12.218Z,20.92
2017-10-26T04:21:46.254Z,28.02
2017-10-26T04:22:20.136Z,25.50
2017-10-26T04:22:54.220Z,24.12
2017-10-26T04:23:28.100Z,39.25
2017-10-26T04:24:01.967Z,30.67
2017-10-26T04:24:35.848Z,23.33
2017-10-26T04:25:09.936Z,21.48
2017-10-26T04:25:43.813Z,21.48
2017-10-26T04:26:17.694Z,23.12
2017-10-26T04:26:51.621Z,22.37
2017-10-26T04:27:25.499Z,23.25
2017-10-26T04:27:59.371Z,20.48
2017-10-26T04:28:33.227Z,19.87
2017-10-26T04:29:07.093Z,28.25
2017-10-26T04:29:40.956Z,24.90
2017-10-26T04:30:14.854Z,23.52
2017-10-26T04:30:48.714Z,21.20
2017-10-26T04:31:22.883Z,23.45
2017-10-26T04:31:56.738Z,17.77
2017-10-26T04:32:30.631Z,18.87
2017-10-26T04:33:04.598Z,23.15
2017-10-26T04:33:38.494Z,22.40
2017-10-26T04:34:12.363Z,23.60
2017-10-26T04:34:46.232Z,23.12
2017-10-26T04:35:20.122Z,20.33
2017-10-26T04:35:53.987Z,22.55
2017-10-26T04:36:27.850Z,20.67
2017-10-26T04:37:01.843Z,20.70
2017-10-26T04:37:35.714Z,20.02
2017-10-26T04:38:09.586Z,18.42
2017-10-26T04:38:43.502Z,20.20
2017-10-26T04:39:17.522Z,22.17
2017-10-26T04:39:51.426Z,21.85
2017-10-26T04:40:25.307Z,18.90
2017-10-26T04:40:59.165Z,23.02
2017-10-26T04:41:33.013Z,17.50
2017-10-26T04:42:07.015Z,23.95
2017-10-26T04:42:40.899Z,26.65
2017-10-26T04:43:14.796Z,20.15
2017-10-26T04:43:48.668Z,28.00
2017-10-26T04:44:22.886Z,17.60
2017-10-26T04:44:56.755Z,19.12
2017-10-26T04:45:31.261Z,19.95
2017-10-26T04:46:05.130Z,14.27
2017-10-26T04:46:39.007Z,21.08
2017-10-26T04:47:12.874Z,20.05
2017-10-26T04:47:46.804Z,19.35
2017-10-26T04:48:20.666Z,20.60
2017-10-26T04:48:54.583Z,21.33
2017-10-26T04:49:28.677Z,21.37
2017-10-26T04:50:02.575Z,19.52
2017-10-26T04:50:36.466Z,24.30
2017-10-26T04:51:10.832Z,16.42
2017-10-26T04:51:44.714Z,17.17
2017-10-26T04:52:18.574Z,18.17
2017-10-26T04:52:52.470Z,16.67
2017-10-26T04:53:26.459Z,16.50
2017-10-26T04:54:00.482Z,21.17
2017-10-26T04:54:34.657Z,21.95
2017-10-26T04:55:08.636Z,20.65
2017-10-26T04:55:42.499Z,20.35
2017-10-26T04:56:16.393Z,22.62
2017-10-26T04:56:50.279Z,17.37
2017-10-26T04:57:24.191Z,19.35
2017-10-26T04:57:58.070Z,22.67
2017-10-26T04:58:31.934Z,22.25
2017-10-26T04:59:05.807Z,22.90
2017-10-26T04:59:39.667Z,20.88
2017-10-26T05:00:13.537Z,17.98
2017-10-26T05:00:47.404Z,20.65
2017-10-26T05:01:21.274Z,20.12
2017-10-26T05:01:55.181Z,17.20
2017-10-26T05:02:29.329Z,20.83
2017-10-26T05:03:03.271Z,25.50
2017-10-26T05:03:37.483Z,23.23
2017-10-26T05:04:11.372Z,22.40
2017-10-26T05:04:45.242Z,22.67
2017-10-26T05:05:19.120Z,22.35
2017-10-26T05:05:53.032Z,19.42
2017-10-26T05:06:26.912Z,26.00
2017-10-26T05:07:00.796Z,27.15
2017-10-26T05:07:34.689Z,18.98
2017-10-26T05:08:08.584Z,23.83
2017-10-26T05:08:42.647Z,21.12
2017-10-26T05:09:16.506Z,21.30
2017-10-26T05:09:50.479Z,21.50
2017-10-26T05:10:24.353Z,20.55
2017-10-26T05:10:58.224Z,17.90
2017-10-26T05:11:32.103Z,20.55
2017-10-26T05:12:06.019Z,16.42
2017-10-26T05:12:39.899Z,16.87
2017-10-26T05:13:13.859Z,18.12
2017-10-26T05:13:47.738Z,24.85
2017-10-26T05:14:21.605Z,17.30
2017-10-26T05:14:55.924Z,20.55
2017-10-26T05:15:30.096Z,16.30
2017-10-26T05:16:03.962Z,21.17
2017-10-26T05:16:37.847Z,15.95
2017-10-26T05:17:11.794Z,20.48
2017-10-26T05:17:45.691Z,18.37
2017-10-26T05:18:19.568Z,21.60
2017-10-26T05:18:53.438Z,19.60
2017-10-26T05:19:27.309Z,23.48
2017-10-26T05:20:01.465Z,18.60
2017-10-26T05:20:35.368Z,20.40
2017-10-26T05:21:09.250Z,17.98
2017-10-26T05:21:43.284Z,23.15
2017-10-26T05:22:17.371Z,23.15
2017-10-26T05:22:51.240Z,26.42
2017-10-26T05:23:25.159Z,14.30
2017-10-26T05:23:59.018Z,17.25
2017-10-26T05:24:35.680Z,17.83
2017-10-26T05:25:09.554Z,17.30
2017-10-26T05:25:43.423Z,22.58
2017-10-26T05:26:17.282Z,21.42
2017-10-26T05:26:51.150Z,22.37
2017-10-26T05:27:25.015Z,20.12
2017-10-26T05:27:58.914Z,18.62
2017-10-26T05:28:32.793Z,19.02
2017-10-26T05:29:06.663Z,24.87
2017-10-26T05:29:40.534Z,20.35
2017-10-26T05:30:14.673Z,23.08
2017-10-26T05:30:48.530Z,20.77
2017-10-26T05:31:22.391Z,17.40
2017-10-26T05:31:56.254Z,19.35
2017-10-26T05:32:30.133Z,18.62
2017-10-26T05:33:04.012Z,18.60
2017-10-26T05:33:37.894Z,22.50
2017-10-26T05:34:11.757Z,25.00
2017-10-26T05:34:45.610Z,22.73
2017-10-26T05:35:19.502Z,26.62
2017-10-26T05:35:53.390Z,19.67
2017-10-26T05:36:27.263Z,18.02
2017-10-26T05:37:01.122Z,20.12
2017-10-26T05:37:35.003Z,22.13
2017-10-26T05:38:08.871Z,20.80
2017-10-26T05:38:42.775Z,17.20
2017-10-26T05:39:16.766Z,17.10
2017-10-26T05:39:50.624Z,27.92
2017-10-26T05:40:24.491Z,17.37
2017-10-26T05:40:58.363Z,21.67
2017-10-26T05:41:32.250Z,14.18
2017-10-26T05:42:06.119Z,21.70
2017-10-26T05:42:40.010Z,23.87
2017-10-26T05:43:13.874Z,20.40
2017-10-26T05:43:48.047Z,24.40
2017-10-26T05:44:21.917Z,23.10
2017-10-26T05:44:55.820Z,18.02
2017-10-26T05:45:29.798Z,22.75
2017-10-26T05:46:03.686Z,23.45
2017-10-26T05:46:37.609Z,20.90
2017-10-26T05:47:11.487Z,16.17
2017-10-26T05:47:45.372Z,19.87
2017-10-26T05:48:19.276Z,29.00
2017-10-26T05:48:53.158Z,21.80
2017-10-26T05:49:27.026Z,21.50
2017-10-26T05:50:01.556Z,24.95
2017-10-26T05:50:35.435Z,20.17
2017-10-26T05:51:09.609Z,23.42
2017-10-26T05:51:43.489Z,23.33
2017-10-26T05:52:17.377Z,29.48
2017-10-26T05:52:51.241Z,20.90
2017-10-26T05:53:25.288Z,21.27
2017-10-26T05:53:59.156Z,29.63
2017-10-26T05:54:33.026Z,19.48
2017-10-26T05:55:06.899Z,23.00
2017-10-26T05:55:40.962Z,24.75
2017-10-26T05:56:14.863Z,24.50
2017-10-26T05:56:48.956Z,27.83
2017-10-26T05:57:23.055Z,20.62
2017-10-26T05:57:57.171Z,21.65
2017-10-26T05:58:31.038Z,18.67
2017-10-26T05:59:04.918Z,14.73
2017-10-26T05:59:38.795Z,17.58
2017-10-26T06:00:12.676Z,17.70
2017-10-26T06:00:46.546Z,26.67
2017-10-26T06:01:20.526Z,20.15
2017-10-26T06:01:54.397Z,20.62
2017-10-26T06:02:28.269Z,18.60
2017-10-26T06:03:02.131Z,18.48
2017-10-26T06:03:36.025Z,19.77
2017-10-26T06:04:09.957Z,23.65
2017-10-26T06:04:43.920Z,25.77
2017-10-26T06:05:17.802Z,28.27
2017-10-26T06:05:51.682Z,21.75
2017-10-26T06:06:25.557Z,22.33
2017-10-26T06:06:59.443Z,20.00
2017-10-26T06:07:33.330Z,22.95
2017-10-26T06:08:07.204Z,28.65
2017-10-26T06:08:41.067Z,26.27
2017-10-26T06:09:14.957Z,18.62
2017-10-26T06:09:48.818Z,18.08
2017-10-26T06:10:22.697Z,18.35
2017-10-26T06:10:56.564Z,23.62
2017-10-26T06:11:30.462Z,24.90
2017-10-26T06:12:04.352Z,24.45
2017-10-26T06:12:38.220Z,22.23
2017-10-26T06:13:12.086Z,22.98
2017-10-26T06:13:45.955Z,20.80
2017-10-26T06:14:19.909Z,23.77
2017-10-26T06:14:53.761Z,20.67
2017-10-26T06:15:27.638Z,22.00
2017-10-26T06:16:01.509Z,28.45
2017-10-26T06:16:35.559Z,22.17
2017-10-26T06:17:09.441Z,21.23
2017-10-26T06:17:43.366Z,18.25
2017-10-26T06:18:17.281Z,20.48
2017-10-26T06:18:51.265Z,22.08
2017-10-26T06:19:25.211Z,34.95
2017-10-26T06:19:59.142Z,25.62
2017-10-26T06:20:33.019Z,20.27
2017-10-26T06:21:06.911Z,25.48
2017-10-26T06:21:40.839Z,20.23
2017-10-26T06:22:14.707Z,21.80
2017-10-26T06:22:48.577Z,23.48
2017-10-26T06:23:22.442Z,19.35
2017-10-26T06:23:56.356Z,29.33
2017-10-26T06:24:30.332Z,22.37
2017-10-26T06:25:04.210Z,21.12
2017-10-26T06:25:38.089Z,22.00
2017-10-26T06:26:11.956Z,26.12
2017-10-26T06:26:45.831Z,24.10
2017-10-26T06:27:19.708Z,20.52
2017-10-26T06:27:53.571Z,24.67
2017-10-26T06:28:27.429Z,22.55
2017-10-26T06:29:01.301Z,22.25
2017-10-26T06:29:35.188Z,23.08
2017-10-26T06:30:09.076Z,26.37
2017-10-26T06:30:42.964Z,27.05
2017-10-26T06:31:16.831Z,27.48
2017-10-26T06:31:50.698Z,21.75
2017-10-26T06:32:24.567Z,20.08
2017-10-26T06:32:58.429Z,20.50
2017-10-26T06:33:32.296Z,18.17
2017-10-26T06:34:06.191Z,20.27
2017-10-26T06:34:40.186Z,25.00
2017-10-26T06:35:14.057Z,20.40
2017-10-26T06:35:47.925Z,19.98
2017-10-26T06:36:21.793Z,26.50
2017-10-26T06:36:55.662Z,28.05
2017-10-26T06:37:29.542Z,23.38
2017-10-26T06:38:03.399Z,24.90
2017-10-26T06:38:37.263Z,25.88
2017-10-26T06:39:11.136Z,22.70
2017-10-26T06:39:45.016Z,25.27
2017-10-26T06:40:18.878Z,22.58
2017-10-26T06:40:52.761Z,23.48
2017-10-26T06:41:26.882Z,22.20
2017-10-26T06:42:00.763Z,22.13
2017-10-26T06:42:34.778Z,18.48
2017-10-26T06:43:08.690Z,21.58
2017-10-26T06:43:42.572Z,26.55
2017-10-26T06:44:17.060Z,31.92
2017-10-26T06:44:51.038Z,18.55
2017-10-26T06:45:24.903Z,22.58
2017-10-26T06:45:58.773Z,26.48
2017-10-26T06:46:32.639Z,19.95
2017-10-26T06:47:06.508Z,25.05
2017-10-26T06:47:40.378Z,18.62
2017-10-26T06:48:14.248Z,20.45
2017-10-26T06:48:48.339Z,17.15
2017-10-26T06:49:22.216Z,19.23
2017-10-26T06:49:56.235Z,22.20
2017-10-26T06:50:30.120Z,22.30
2017-10-26T06:51:03.975Z,21.08
2017-10-26T06:51:37.874Z,16.83
2017-10-26T06:52:11.743Z,19.42
2017-10-26T06:52:45.655Z,22.90
2017-10-26T06:53:19.591Z,19.23
2017-10-26T06:53:53.473Z,19.02
2017-10-26T06:54:27.498Z,20.70
2017-10-26T06:55:01.384Z,21.85
2017-10-26T06:55:35.250Z,19.00
2017-10-26T06:56:09.159Z,19.98
2017-10-26T06:56:43.038Z,20.27
2017-10-26T06:57:16.936Z,16.40
2017-10-26T06:57:50.790Z,19.52
2017-10-26T06:58:24.659Z,17.65
2017-10-26T06:58:58.529Z,17.23
2017-10-26T06:59:32.396Z,16.73
2017-10-26T07:00:06.347Z,17.08
2017-10-26T07:00:40.444Z,19.52
2017-10-26T07:01:14.446Z,16.35
2017-10-26T07:01:48.645Z,17.12
2017-10-26T07:02:22.499Z,16.45
2017-10-26T07:02:56.365Z,16.40
2017-10-26T07:03:30.232Z,21.60
2017-10-26T07:04:04.104Z,18.55
2017-10-26T07:04:37.958Z,27.13
2017-10-26T07:05:11.847Z,17.67
2017-10-26T07:05:45.706Z,25.52
2017-10-26T07:06:19.582Z,19.48
2017-10-26T07:06:53.462Z,22.80
2017-10-26T07:07:27.336Z,24.23
2017-10-26T07:08:01.418Z,28.98
2017-10-26T07:08:35.274Z,18.60
2017-10-26T07:09:09.158Z,16.65
2017-10-26T07:09:44.193Z,22.35
2017-10-26T07:10:18.076Z,19.42
2017-10-26T07:10:51.934Z,12.75
2017-10-26T07:11:25.790Z,16.25
2017-10-26T07:11:59.667Z,14.55
2017-10-26T07:12:33.544Z,20.92
2017-10-26T07:13:07.402Z,18.62
2017-10-26T07:13:41.276Z,16.45
2017-10-26T07:14:15.145Z,14.13
2017-10-26T07:14:49.077Z,21.45
2017-10-26T07:15:23.007Z,16.80
2017-10-26T07:15:56.901Z,23.25
2017-10-26T07:16:30.841Z,16.33
2017-10-26T07:17:04.728Z,13.62
2017-10-26T07:17:38.620Z,15.50
2017-10-26T07:18:12.563Z,18.85
2017-10-26T07:18:46.451Z,12.45